Time;durP1;ratioP1;P1;durP2;ratioP2;P2;SDS_P1;SDS_P2;PMS_P1;PMS_P2;Temp;Humidity;BMP_temperature;BMP_pressure;BME280_temperature;BME280_humidity;BME280_pressure;Samples;Min_cycle;Max_cycle;Signal;HPM_P1;HPM_P2
2022/05/13 00:00:11;;;;;;;4.93;4.07;;;;;;;;;;4914222;29;20064;-92
2022/05/13 00:02:37;;;;;;;7.05;4.05;;;;;;;;;;4913795;29;20033;-80
2022/05/13 00:05:04;;;;;;;5.20;3.63;;;;;;;;;;4898388;29;20029;-81
2022/05/13 00:07:30;;;;;;;4.43;3.30;;;;;;;;;;4914409;29;20041;-95
2022/05/13 00:09:57;;;;;;;6.65;3.65;;;;;;;;;;4899217;29;20021;-82
2022/05/13 00:12:24;;;;;;;4.60;3.38;;;;;;;;;;4913607;29;20052;-95
2022/05/13 00:14:51;;;;;;;6.32;4.20;;;;;;;;;;4913955;29;20033;-96
2022/05/13 00:17:17;;;;;;;5.32;3.75;;;;;;;;;;4899463;29;20497;-80
2022/05/13 00:19:44;;;;;;;5.25;3.33;;;;;;;;;;4914010;29;20031;-93
2022/05/13 00:22:12;;;;;;;5.55;3.40;;;;;;;;;;4899113;29;20048;-80
2022/05/13 00:24:38;;;;;;;4.38;3.50;;;;;;;;;;4913399;29;20176;-95
2022/05/13 00:27:04;;;;;;;5.13;3.50;;;;;;;;;;4899257;29;20100;-95
2022/05/13 00:29:30;;;;;;;7.10;3.90;;;;;;;;;;4914063;29;20051;-96
2022/05/13 00:31:59;;;;;;;5.88;3.55;;;;;;;;;;4914266;29;20039;-94
2022/05/13 00:34:33;;;;;;;4.13;3.38;;;;;;;;;;4913830;29;20389;-95
2022/05/13 00:36:59;;;;;;;5.00;3.88;;;;;;;;;;4912957;29;20036;-81
2022/05/13 00:39:27;;;;;;;4.22;3.83;;;;;;;;;;4912859;29;20075;-94
2022/05/13 00:41:53;;;;;;;4.90;3.67;;;;;;;;;;4914786;29;20041;-81
2022/05/13 00:44:21;;;;;;;4.95;3.80;;;;;;;;;;4916480;29;20036;-80
2022/05/13 00:46:48;;;;;;;5.03;3.92;;;;;;;;;;4916943;29;20028;-94
2022/05/13 00:49:15;;;;;;;6.60;3.85;;;;;;;;;;4902170;29;20099;-94
2022/05/13 00:51:47;;;;;;;5.80;3.78;;;;;;;;;;4916306;29;20037;-94
2022/05/13 00:54:15;;;;;;;5.22;3.63;;;;;;;;;;4915724;29;20032;-82
2022/05/13 00:56:49;;;;;;;5.18;3.85;;;;;;;;;;4915864;29;20028;-80
2022/05/13 00:59:20;;;;;;;5.03;3.72;;;;;;;;;;4916725;29;20028;-80
2022/05/13 01:01:48;;;;;;;4.45;3.58;;;;;;;;;;4916410;29;20044;-93
2022/05/13 01:04:15;;;;;;;5.10;4.00;;;;;;;;;;4916162;29;20067;-93
2022/05/13 01:06:54;;;;;;;6.75;4.22;;;;;;;;;;4915720;29;20038;-95
2022/05/13 01:09:21;;;;;;;4.70;3.97;;;;;;;;;;4916794;29;20081;-95
2022/05/13 01:11:48;;;;;;;5.40;4.35;;;;;;;;;;4901303;29;20095;-94
2022/05/13 01:14:17;;;;;;;5.63;3.97;;;;;;;;;;4916204;29;20359;-95
2022/05/13 01:19:33;;;;;;;6.40;4.15;;;;;;;;;;4892181;29;20043;-95
2022/05/13 01:22:12;;;;;;;5.80;4.43;;;;;;;;;;4915413;29;20037;-95
2022/05/13 01:24:38;;;;;;;5.85;4.43;;;;;;;;;;4901027;29;20036;-95
2022/05/13 01:27:04;;;;;;;6.50;4.50;;;;;;;;;;4916174;29;20047;-95
2022/05/13 01:29:30;;;;;;;5.72;4.78;;;;;;;;;;4915326;29;20069;-94
2022/05/13 01:31:56;;;;;;;7.03;5.07;;;;;;;;;;4915157;29;20048;-81
2022/05/13 01:34:23;;;;;;;6.28;4.80;;;;;;;;;;4915316;29;20500;-81
2022/05/13 01:36:49;;;;;;;5.90;4.10;;;;;;;;;;4915607;29;20128;-80
2022/05/13 01:39:15;;;;;;;6.88;3.80;;;;;;;;;;4901514;29;20031;-80
2022/05/13 01:41:41;;;;;;;6.97;3.60;;;;;;;;;;4916188;29;20486;-80
2022/05/13 01:44:07;;;;;;;5.57;3.60;;;;;;;;;;4915394;29;20081;-80
2022/05/13 01:46:33;;;;;;;6.90;4.03;;;;;;;;;;4914756;29;20036;-92
2022/05/13 01:49:00;;;;;;;7.80;4.47;;;;;;;;;;4916123;29;20028;-89
2022/05/13 01:51:26;;;;;;;6.75;4.07;;;;;;;;;;4915375;29;20403;-79
2022/05/13 01:53:53;;;;;;;7.07;4.43;;;;;;;;;;4914325;29;20056;-92
2022/05/13 01:56:19;;;;;;;8.02;4.32;;;;;;;;;;4900079;29;20025;-88
2022/05/13 01:58:48;;;;;;;7.88;3.90;;;;;;;;;;4900082;29;20049;-89
2022/05/13 02:01:14;;;;;;;6.85;4.05;;;;;;;;;;4915494;29;20037;-80
2022/05/13 02:03:46;;;;;;;6.93;3.90;;;;;;;;;;4914465;29;20059;-94
2022/05/13 02:06:14;;;;;;;7.38;4.63;;;;;;;;;;4916084;29;20491;-92
2022/05/13 02:08:41;;;;;;;5.78;4.15;;;;;;;;;;4915266;29;20390;-82
2022/05/13 02:11:07;;;;;;;6.05;4.40;;;;;;;;;;4899624;29;20036;-80
2022/05/13 02:13:34;;;;;;;6.28;4.00;;;;;;;;;;4915763;29;20123;-95
2022/05/13 02:16:00;;;;;;;5.68;3.90;;;;;;;;;;4915899;29;20088;-95
2022/05/13 02:18:27;;;;;;;5.50;3.80;;;;;;;;;;4914899;29;20036;-81
2022/05/13 02:20:53;;;;;;;5.93;4.45;;;;;;;;;;4915099;29;20017;-92
2022/05/13 02:23:20;;;;;;;5.45;4.32;;;;;;;;;;4900745;29;20031;-95
2022/05/13 02:25:46;;;;;;;5.75;4.53;;;;;;;;;;4914744;29;20033;-89
2022/05/13 02:28:13;;;;;;;4.25;3.85;;;;;;;;;;4915193;29;20056;-83
2022/05/13 02:30:39;;;;;;;4.60;4.00;;;;;;;;;;4914387;29;20482;-94
2022/05/13 02:33:09;;;;;;;6.38;3.20;;;;;;;;;;4915068;29;20037;-80
2022/05/13 02:35:35;;;;;;;6.78;3.28;;;;;;;;;;4914402;29;20036;-82
2022/05/13 02:38:01;;;;;;;5.18;3.70;;;;;;;;;;4915027;29;20040;-91
2022/05/13 02:43:16;;;;;;;6.03;3.60;;;;;;;;;;4900261;29;20584;-92
2022/05/13 02:45:42;;;;;;;5.70;3.15;;;;;;;;;;4914728;29;20501;-92
2022/05/13 02:48:09;;;;;;;5.38;3.30;;;;;;;;;;4914313;29;20160;-93
2022/05/13 02:50:37;;;;;;;5.47;2.88;;;;;;;;;;4899763;29;20111;-92
2022/05/13 02:53:03;;;;;;;5.18;3.13;;;;;;;;;;4913914;29;20059;-82
2022/05/13 02:55:29;;;;;;;5.70;3.08;;;;;;;;;;4899113;29;20121;-93
2022/05/13 02:57:56;;;;;;;4.65;2.55;;;;;;;;;;4913996;29;20036;-82
2022/05/13 03:00:22;;;;;;;6.80;2.88;;;;;;;;;;4913722;29;20024;-82
2022/05/13 03:02:49;;;;;;;3.83;2.30;;;;;;;;;;4898894;29;20036;-92
2022/05/13 03:05:15;;;;;;;3.63;2.45;;;;;;;;;;4913112;29;20478;-80
2022/05/13 03:07:41;;;;;;;5.80;2.40;;;;;;;;;;4913558;29;20029;-86
2022/05/13 03:10:08;;;;;;;4.50;2.30;;;;;;;;;;4914172;29;20069;-80
2022/05/13 03:12:35;;;;;;;5.85;2.90;;;;;;;;;;4913603;29;20084;-82
2022/05/13 03:15:01;;;;;;;5.63;2.65;;;;;;;;;;4914062;29;20359;-86
2022/05/13 03:17:31;;;;;;;5.22;1.90;;;;;;;;;;4914163;29;20076;-86
2022/05/13 03:19:57;;;;;;;4.13;2.00;;;;;;;;;;4898824;29;20029;-91
2022/05/13 03:22:27;;;;;;;4.15;1.88;;;;;;;;;;4913501;29;20032;-82
2022/05/13 03:24:53;;;;;;;3.13;1.80;;;;;;;;;;4913781;29;20028;-92
2022/05/13 03:27:19;;;;;;;3.92;2.03;;;;;;;;;;4912798;29;20036;-92
2022/05/13 03:29:46;;;;;;;4.10;1.83;;;;;;;;;;4913476;29;20385;-84
2022/05/13 03:32:12;;;;;;;4.40;2.13;;;;;;;;;;4898507;29;20037;-81
2022/05/13 03:34:38;;;;;;;5.05;2.00;;;;;;;;;;4913268;29;20470;-83
2022/05/13 03:37:05;;;;;;;5.47;2.38;;;;;;;;;;4913133;29;20029;-81
2022/05/13 03:39:31;;;;;;;6.40;2.50;;;;;;;;;;4913313;29;20363;-87
2022/05/13 03:41:57;;;;;;;3.50;2.30;;;;;;;;;;4913050;29;20040;-87
2022/05/13 03:44:24;;;;;;;4.55;2.55;;;;;;;;;;4898797;29;20021;-81
2022/05/13 03:46:50;;;;;;;3.40;2.00;;;;;;;;;;4913122;29;20035;-81
2022/05/13 03:49:17;;;;;;;3.45;2.35;;;;;;;;;;4913227;29;20029;-84
2022/05/13 03:51:43;;;;;;;4.90;2.40;;;;;;;;;;4899195;29;20037;-79
2022/05/13 03:54:09;;;;;;;6.18;2.40;;;;;;;;;;4913099;29;20028;-91
2022/05/13 03:56:35;;;;;;;3.58;2.35;;;;;;;;;;4913919;29;20386;-80
2022/05/13 03:59:03;;;;;;;5.80;2.40;;;;;;;;;;4913530;29;20028;-80
2022/05/13 04:01:29;;;;;;;3.80;2.30;;;;;;;;;;4912651;29;20043;-81
2022/05/13 04:03:55;;;;;;;3.05;2.00;;;;;;;;;;4898383;29;20029;-91
2022/05/13 04:09:06;;;;;;;3.58;2.20;;;;;;;;;;4898984;29;20116;-89
2022/05/13 04:11:34;;;;;;;3.20;2.00;;;;;;;;;;4913541;29;20446;-84
2022/05/13 04:16:45;;;;;;;6.43;2.40;;;;;;;;;;4898654;29;20043;-81
2022/05/13 04:19:12;;;;;;;4.85;2.30;;;;;;;;;;4902733;29;20040;-81
2022/05/13 04:21:41;;;;;;;3.10;1.88;;;;;;;;;;4916212;29;20407;-83
2022/05/13 04:24:09;;;;;;;3.95;1.90;;;;;;;;;;4917103;29;20032;-78
2022/05/13 04:26:39;;;;;;;4.10;2.10;;;;;;;;;;4900802;29;20040;-90
2022/05/13 04:29:06;;;;;;;3.25;1.80;;;;;;;;;;4914430;29;20127;-81
2022/05/13 04:31:34;;;;;;;3.50;1.65;;;;;;;;;;4905404;29;20025;-80
2022/05/13 04:34:00;;;;;;;2.95;1.85;;;;;;;;;;4901425;29;20148;-80
2022/05/13 04:36:29;;;;;;;2.92;1.90;;;;;;;;;;4901944;29;20029;-91
2022/05/13 04:38:55;;;;;;;2.97;2.08;;;;;;;;;;4900376;29;20084;-82
2022/05/13 04:44:07;;;;;;;3.70;2.22;;;;;;;;;;4901178;29;20051;-80
2022/05/13 04:46:36;;;;;;;3.90;2.20;;;;;;;;;;4917646;29;20029;-81
2022/05/13 04:49:03;;;;;;;3.40;2.25;;;;;;;;;;4900745;29;20024;-80
2022/05/13 04:51:30;;;;;;;4.57;2.30;;;;;;;;;;4915393;29;20029;-81
2022/05/13 04:53:59;;;;;;;5.10;2.20;;;;;;;;;;4915000;29;20410;-83
2022/05/13 04:56:26;;;;;;;3.08;1.98;;;;;;;;;;4915279;29;20020;-79
2022/05/13 04:58:55;;;;;;;2.70;2.00;;;;;;;;;;4917006;29;20171;-80
2022/05/13 05:01:21;;;;;;;3.35;1.75;;;;;;;;;;4915223;29;20074;-84
2022/05/13 05:03:48;;;;;;;3.50;1.90;;;;;;;;;;4900342;29;20460;-79
2022/05/13 05:06:15;;;;;;;4.40;1.60;;;;;;;;;;4900685;29;20033;-79
2022/05/13 05:08:41;;;;;;;2.53;1.60;;;;;;;;;;4915338;29;20025;-85
2022/05/13 05:11:08;;;;;;;5.93;1.60;;;;;;;;;;4901147;29;20029;-83
2022/05/13 05:13:36;;;;;;;3.35;1.77;;;;;;;;;;4916216;29;20036;-88
2022/05/13 05:16:06;;;;;;;3.95;1.63;;;;;;;;;;4901350;29;20390;-80
2022/05/13 05:18:39;;;;;;;2.65;1.75;;;;;;;;;;4900626;29;20025;-80
2022/05/13 05:21:06;;;;;;;3.67;1.88;;;;;;;;;;4900766;29;20131;-79
2022/05/13 05:23:33;;;;;;;5.07;2.05;;;;;;;;;;4915407;29;20036;-85
2022/05/13 05:25:59;;;;;;;4.28;1.55;;;;;;;;;;4915273;29;20127;-81
2022/05/13 05:28:26;;;;;;;2.33;1.70;;;;;;;;;;4899350;29;20052;-80
2022/05/13 05:30:53;;;;;;;2.50;1.60;;;;;;;;;;4898856;29;20557;-78
2022/05/13 05:33:19;;;;;;;2.22;1.33;;;;;;;;;;4900633;29;20049;-89
2022/05/13 05:35:46;;;;;;;2.22;1.35;;;;;;;;;;4915590;29;20111;-80
2022/05/13 05:38:15;;;;;;;3.38;1.45;;;;;;;;;;4915533;29;20056;-89
2022/05/13 05:40:44;;;;;;;1.88;1.50;;;;;;;;;;4915951;29;20033;-87
2022/05/13 05:43:12;;;;;;;2.40;1.40;;;;;;;;;;4915899;29;20044;-83
2022/05/13 05:45:40;;;;;;;2.22;1.40;;;;;;;;;;4915728;29;20025;-91
2022/05/13 05:48:07;;;;;;;4.93;1.52;;;;;;;;;;4914827;29;20044;-92
2022/05/13 05:50:33;;;;;;;2.15;1.40;;;;;;;;;;4915426;29;20052;-87
2022/05/13 05:53:01;;;;;;;2.67;1.45;;;;;;;;;;4915784;29;20056;-93
2022/05/13 05:58:16;;;;;;;4.78;1.60;;;;;;;;;;4899971;29;20035;-79
2022/05/13 06:00:47;;;;;;;2.35;1.50;;;;;;;;;;4914564;29;20088;-77
2022/05/13 06:03:20;;;;;;;2.92;1.40;;;;;;;;;;4918155;29;20108;-92
2022/05/13 06:05:53;;;;;;;2.75;1.75;;;;;;;;;;4915684;29;20088;-89
2022/05/13 06:08:19;;;;;;;2.95;1.73;;;;;;;;;;4915616;29;20076;-83
2022/05/13 06:10:45;;;;;;;3.67;2.05;;;;;;;;;;4914658;29;20033;-82
2022/05/13 06:13:15;;;;;;;3.92;1.90;;;;;;;;;;4914209;29;20036;-90
2022/05/13 06:15:41;;;;;;;2.92;1.90;;;;;;;;;;4900125;29;20032;-81
2022/05/13 06:18:07;;;;;;;5.20;2.28;;;;;;;;;;4900633;29;20028;-83
2022/05/13 06:20:33;;;;;;;2.83;1.88;;;;;;;;;;4915641;29;20072;-82
2022/05/13 06:22:59;;;;;;;3.28;2.40;;;;;;;;;;4900378;29;20033;-80
2022/05/13 06:25:26;;;;;;;4.57;2.30;;;;;;;;;;4915057;29;20035;-90
2022/05/13 06:27:58;;;;;;;3.03;2.10;;;;;;;;;;4911910;29;20045;-87
2022/05/13 06:30:32;;;;;;;4.83;2.40;;;;;;;;;;4895672;29;20025;-84
2022/05/13 06:32:58;;;;;;;6.65;5.22;;;;;;;;;;4880828;29;20104;-87
2022/05/13 06:35:25;;;;;;;3.50;2.53;;;;;;;;;;4910769;29;20124;-85
2022/05/13 06:37:51;;;;;;;4.00;2.20;;;;;;;;;;4910555;29;20029;-81
2022/05/13 06:40:18;;;;;;;4.95;2.30;;;;;;;;;;4910845;29;20048;-85
2022/05/13 06:42:45;;;;;;;2.83;2.17;;;;;;;;;;4880428;29;20090;-81
2022/05/13 06:45:11;;;;;;;3.35;2.15;;;;;;;;;;4910680;29;20036;-79
2022/05/13 06:47:37;;;;;;;2.88;2.25;;;;;;;;;;4910206;29;20108;-78
2022/05/13 06:50:05;;;;;;;5.80;2.60;;;;;;;;;;4910274;29;20037;-82
2022/05/13 06:52:31;;;;;;;3.55;2.70;;;;;;;;;;4910263;29;20044;-78
2022/05/13 06:54:57;;;;;;;3.75;2.90;;;;;;;;;;4910493;29;20486;-78
2022/05/13 06:57:23;;;;;;;3.33;2.42;;;;;;;;;;4909958;29;20097;-78
2022/05/13 06:59:49;;;;;;;4.03;2.55;;;;;;;;;;4880178;29;20104;-84
2022/05/13 07:02:17;;;;;;;3.78;2.30;;;;;;;;;;4910081;29;20045;-78
2022/05/13 07:04:44;;;;;;;3.78;2.50;;;;;;;;;;4880450;29;20021;-85
2022/05/13 07:07:10;;;;;;;5.93;2.53;;;;;;;;;;4909742;29;20163;-79
2022/05/13 07:09:37;;;;;;;3.47;2.20;;;;;;;;;;4909758;29;20029;-78
2022/05/13 07:12:03;;;;;;;3.55;2.50;;;;;;;;;;4909742;29;20486;-77
2022/05/13 07:14:30;;;;;;;5.95;2.42;;;;;;;;;;4909563;29;20509;-77
2022/05/13 07:16:56;;;;;;;3.40;2.42;;;;;;;;;;4879659;29;20043;-77
2022/05/13 07:19:22;;;;;;;4.25;2.38;;;;;;;;;;4909555;29;20057;-78
2022/05/13 07:21:48;;;;;;;3.38;2.33;;;;;;;;;;4909593;29;20047;-78
2022/05/13 07:24:15;;;;;;;3.35;2.33;;;;;;;;;;4897983;29;20028;-77
2022/05/13 07:26:41;;;;;;;3.75;2.33;;;;;;;;;;4897997;29;20036;-77
2022/05/13 07:29:07;;;;;;;3.80;2.30;;;;;;;;;;4912499;29;20044;-77
2022/05/13 07:31:34;;;;;;;5.30;2.40;;;;;;;;;;4912705;29;20028;-78
2022/05/13 07:34:00;;;;;;;3.85;2.45;;;;;;;;;;4899006;29;20039;-77
2022/05/13 07:36:26;;;;;;;5.10;2.40;;;;;;;;;;4909602;29;20036;-78
2022/05/13 07:41:37;;;;;;;6.32;2.40;;;;;;;;;;4879608;29;20131;-78
2022/05/13 07:44:03;;;;;;;4.43;2.20;;;;;;;;;;4909356;29;20033;-79
2022/05/13 07:46:29;;;;;;;5.63;2.17;;;;;;;;;;4908949;29;20029;-78
2022/05/13 07:48:59;;;;;;;6.28;2.33;;;;;;;;;;4909538;29;20408;-78
2022/05/13 07:51:26;;;;;;;2.92;1.90;;;;;;;;;;4910516;29;20037;-86
2022/05/13 07:53:53;;;;;;;4.90;2.45;;;;;;;;;;4913519;29;20037;-78
2022/05/13 07:56:22;;;;;;;4.90;2.55;;;;;;;;;;4913177;29;20029;-80
2022/05/13 07:58:48;;;;;;;6.32;2.72;;;;;;;;;;4883203;29;20025;-79
2022/05/13 08:01:14;;;;;;;4.88;3.08;;;;;;;;;;4911901;29;20036;-80
2022/05/13 08:03:43;;;;;;;4.22;2.72;;;;;;;;;;4897153;29;20041;-79
2022/05/13 08:06:11;;;;;;;3.95;2.53;;;;;;;;;;4883468;29;20021;-78
2022/05/13 08:08:40;;;;;;;4.30;2.70;;;;;;;;;;4897958;29;20498;-80
2022/05/13 08:11:08;;;;;;;5.28;2.60;;;;;;;;;;4897365;29;20125;-85
2022/05/13 08:13:34;;;;;;;5.80;3.25;;;;;;;;;;4897295;29;20064;-83
2022/05/13 08:16:12;;;;;;;3.72;2.65;;;;;;;;;;4897021;29;20061;-87
2022/05/13 08:18:39;;;;;;;4.60;3.05;;;;;;;;;;4897531;29;20077;-79
2022/05/13 08:21:05;;;;;;;4.68;2.97;;;;;;;;;;4897231;29;20029;-86
2022/05/13 08:23:32;;;;;;;5.57;3.35;;;;;;;;;;4882812;29;20037;-80
2022/05/13 08:25:58;;;;;;;5.90;3.15;;;;;;;;;;4882728;29;20037;-89
2022/05/13 08:28:25;;;;;;;5.68;3.17;;;;;;;;;;4922220;29;20059;-80
2022/05/13 08:30:51;;;;;;;4.47;3.15;;;;;;;;;;4901471;29;20032;-88
2022/05/13 08:33:18;;;;;;;6.47;3.30;;;;;;;;;;4923752;29;20029;-80
2022/05/13 08:35:48;;;;;;;5.95;3.10;;;;;;;;;;4912337;29;20053;-80
2022/05/13 08:38:17;;;;;;;5.55;3.13;;;;;;;;;;4913054;29;20037;-80
2022/05/13 08:40:50;;;;;;;5.53;3.38;;;;;;;;;;4899006;29;20510;-81
2022/05/13 08:43:19;;;;;;;4.88;3.40;;;;;;;;;;4931069;29;20053;-84
2022/05/13 08:46:07;;;;;;;3.80;3.05;;;;;;;;;;4931586;29;20037;-84
2022/05/13 08:48:53;;;;;;;6.82;2.97;;;;;;;;;;4927313;29;20116;-81
2022/05/13 08:57:32;;;;;;;5.35;3.95;;;;;;;;;;4950029;23;20030;-83
2022/05/13 09:00:06;;;;;;;8.27;3.80;;;;;;;;;;4918344;29;20519;-87
2022/05/13 09:02:44;;;;;;;6.32;4.00;;;;;;;;;;4917923;29;20040;-83
2022/05/13 09:05:27;;;;;;;6.90;3.60;;;;;;;;;;4918594;29;20032;-85
2022/05/13 09:07:54;;;;;;;6.05;3.67;;;;;;;;;;4925814;29;20068;-79
2022/05/13 09:10:21;;;;;;;6.68;4.20;;;;;;;;;;4919887;29;20028;-80
2022/05/13 09:12:59;;;;;;;4.68;3.70;;;;;;;;;;4934177;29;20036;-86
2022/05/13 09:15:29;;;;;;;5.28;3.70;;;;;;;;;;4934120;29;20028;-79
2022/05/13 09:18:04;;;;;;;7.13;3.95;;;;;;;;;;4919206;29;20099;-78
2022/05/13 09:20:36;;;;;;;8.93;4.10;;;;;;;;;;4933951;29;20087;-79
2022/05/13 09:23:09;;;;;;;8.67;7.60;;;;;;;;;;4918899;29;20450;-79
2022/05/13 09:25:37;;;;;;;5.40;3.97;;;;;;;;;;4919517;29;20060;-79
2022/05/13 09:28:11;;;;;;;5.72;3.50;;;;;;;;;;4934584;29;20079;-82
2022/05/13 09:30:50;;;;;;;4.28;3.25;;;;;;;;;;4934144;29;20039;-79
2022/05/13 09:33:30;;;;;;;4.07;2.92;;;;;;;;;;4925788;29;20084;-78
2022/05/13 09:35:58;;;;;;;6.28;3.15;;;;;;;;;;4914397;29;20060;-80
2022/05/13 09:38:26;;;;;;;4.30;3.00;;;;;;;;;;4914503;29;20031;-79
2022/05/13 09:41:02;;;;;;;5.72;2.58;;;;;;;;;;4914960;29;20075;-81
2022/05/13 09:43:51;;;;;;;3.35;2.30;;;;;;;;;;4914647;29;20490;-82
2022/05/13 09:46:32;;;;;;;2.65;2.08;;;;;;;;;;4900004;29;20080;-79
2022/05/13 09:49:00;;;;;;;3.78;1.60;;;;;;;;;;4917719;29;20450;-81
2022/05/13 09:51:30;;;;;;;4.15;2.10;;;;;;;;;;4922584;29;20054;-79
2022/05/13 09:54:16;;;;;;;4.22;1.75;;;;;;;;;;4933096;29;20058;-79
2022/05/13 09:56:45;;;;;;;3.05;1.40;;;;;;;;;;4918787;29;20111;-79
2022/05/13 09:59:20;;;;;;;2.83;1.27;;;;;;;;;;4917314;29;20054;-92
2022/05/13 10:01:49;;;;;;;2.85;1.27;;;;;;;;;;4918668;29;20079;-77
2022/05/13 10:04:26;;;;;;;3.67;1.40;;;;;;;;;;4918098;29;20032;-78
2022/05/13 10:07:06;;;;;;;3.63;1.20;;;;;;;;;;4918839;29;20117;-88
2022/05/13 10:15:17;;;;;;;3.15;1.15;;;;;;;;;;4917876;29;20043;-79
2022/05/13 10:17:54;;;;;;;3.50;1.08;;;;;;;;;;4932903;29;20036;-80
2022/05/13 10:20:23;;;;;;;5.00;1.10;;;;;;;;;;4921620;29;20071;-84
2022/05/13 10:22:56;;;;;;;4.40;1.38;;;;;;;;;;4918450;29;20128;-89
2022/05/13 10:25:26;;;;;;;2.33;1.05;;;;;;;;;;4933857;29;20032;-81
2022/05/13 10:27:57;;;;;;;7.22;1.67;;;;;;;;;;4922520;29;20024;-91
2022/05/13 10:30:23;;;;;;;;;;;;;;;;;;4917998;29;20027;-79
2022/05/13 10:33:08;;;;;;;3.15;1.10;;;;;;;;;;4918399;29;20387;-85
2022/05/13 10:35:42;;;;;;;4.60;1.40;;;;;;;;;;4917152;29;20043;-80
2022/05/13 10:38:28;;;;;;;4.60;1.88;;;;;;;;;;4917046;29;20071;-77
2022/05/13 10:40:55;;;;;;;3.38;1.60;;;;;;;;;;4891559;29;20474;-83
2022/05/13 10:43:38;;;;;;;4.40;1.48;;;;;;;;;;4918232;29;20043;-88
2022/05/13 10:46:16;;;;;;;3.08;1.17;;;;;;;;;;4917650;29;20036;-82
2022/05/13 10:48:42;;;;;;;2.90;1.13;;;;;;;;;;4917262;29;20544;-91
2022/05/13 10:51:20;;;;;;;4.38;1.20;;;;;;;;;;4917664;29;20521;-86
2022/05/13 10:53:54;;;;;;;4.15;1.10;;;;;;;;;;4917708;29;20385;-90
2022/05/13 10:56:24;;;;;;;4.13;1.25;;;;;;;;;;4923700;29;20079;-91
2022/05/13 10:58:56;;;;;;;3.13;1.33;;;;;;;;;;4917480;29;20056;-88
2022/05/13 11:01:32;;;;;;;2.80;1.20;;;;;;;;;;4917249;29;20031;-87
2022/05/13 11:04:01;;;;;;;6.50;1.63;;;;;;;;;;4917020;29;20044;-85
2022/05/13 11:06:28;;;;;;;4.25;1.50;;;;;;;;;;4917704;29;20028;-84
2022/05/13 11:08:57;;;;;;;3.28;1.77;;;;;;;;;;4918100;29;20024;-92
2022/05/13 11:11:43;;;;;;;2.83;1.30;;;;;;;;;;4913333;29;20478;-82
2022/05/13 11:14:21;;;;;;;3.95;1.40;;;;;;;;;;4913574;29;20029;-84
2022/05/13 11:16:47;;;;;;;3.03;1.42;;;;;;;;;;4916389;29;20032;-88
2022/05/13 11:19:22;;;;;;;3.72;1.30;;;;;;;;;;4917042;29;20044;-89
2022/05/13 11:21:53;;;;;;;3.72;1.70;;;;;;;;;;4913841;29;20092;-93
2022/05/13 11:27:25;;;;;;;2.85;1.50;;;;;;;;;;4918691;29;20034;-89
2022/05/13 11:29:51;;;;;;;3.65;1.50;;;;;;;;;;4913775;29;20111;-87
2022/05/13 11:32:25;;;;;;;4.55;1.40;;;;;;;;;;4916679;29;20115;-82
2022/05/13 11:34:59;;;;;;;3.20;1.60;;;;;;;;;;4917309;29;20138;-88
2022/05/13 11:37:29;;;;;;;3.10;1.50;;;;;;;;;;4916756;29;20464;-87
2022/05/13 11:39:58;;;;;;;2.85;1.40;;;;;;;;;;4916923;29;20095;-89
2022/05/13 11:43:18;;;;;;;4.53;1.60;;;;;;;;;;4916845;29;20112;-88
2022/05/13 11:45:29;;;;;;;3.20;1.50;;;;;;;;;;4918055;29;20032;-88
2022/05/13 11:48:00;;;;;;;3.20;1.60;;;;;;;;;;4916334;29;20029;-86
2022/05/13 11:50:28;;;;;;;4.77;1.57;;;;;;;;;;4915943;29;20035;-85
2022/05/13 11:52:55;;;;;;;4.03;1.50;;;;;;;;;;4916084;29;20028;-90
2022/05/13 11:55:45;;;;;;;3.72;1.60;;;;;;;;;;4916755;29;20032;-90
2022/05/13 11:58:30;;;;;;;3.83;1.65;;;;;;;;;;4913590;29;20069;-82
2022/05/13 12:00:59;;;;;;;3.65;1.85;;;;;;;;;;4914119;29;20031;-80
2022/05/13 12:03:25;;;;;;;3.95;1.77;;;;;;;;;;4912493;29;20478;-80
2022/05/13 12:06:02;;;;;;;3.97;1.70;;;;;;;;;;4913765;29;20049;-87
2022/05/13 12:08:31;;;;;;;2.55;1.65;;;;;;;;;;4913112;29;20035;-83
2022/05/13 12:11:00;;;;;;;3.45;1.60;;;;;;;;;;4912922;29;20025;-79
2022/05/13 12:13:29;;;;;;;3.85;1.60;;;;;;;;;;4911438;29;20703;-80
2022/05/13 12:16:13;;;;;;;5.78;1.70;;;;;;;;;;4912547;29;20442;-92
2022/05/13 12:18:58;;;;;;;3.50;1.58;;;;;;;;;;4911823;29;20047;-89
2022/05/13 12:21:25;;;;;;;4.40;1.55;;;;;;;;;;4912674;29;20036;-78
2022/05/13 12:24:01;;;;;;;3.10;1.77;;;;;;;;;;4897340;29;20055;-79
2022/05/13 12:26:46;;;;;;;2.50;1.67;;;;;;;;;;4897729;29;20039;-80
2022/05/13 12:29:16;;;;;;;4.28;1.67;;;;;;;;;;4911904;29;20041;-85
2022/05/13 12:31:55;;;;;;;2.45;1.83;;;;;;;;;;4913315;29;20036;-86
2022/05/13 12:40:08;;;;;;;3.22;2.30;;;;;;;;;;4889648;29;20040;-80
2022/05/13 12:42:40;;;;;;;3.55;2.35;;;;;;;;;;4915484;29;20076;-91
2022/05/13 12:45:09;;;;;;;4.30;1.98;;;;;;;;;;4916261;29;20028;-79
2022/05/13 12:47:54;;;;;;;4.38;2.10;;;;;;;;;;4915860;29;20044;-91
2022/05/13 12:50:38;;;;;;;4.55;2.50;;;;;;;;;;4916351;29;20032;-91
2022/05/13 12:53:23;;;;;;;5.22;2.40;;;;;;;;;;4916048;29;20037;-81
2022/05/13 12:55:53;;;;;;;4.22;2.30;;;;;;;;;;4915945;29;20031;-91
2022/05/13 12:58:19;;;;;;;4.88;2.13;;;;;;;;;;4915678;29;20056;-80
2022/05/13 13:00:50;;;;;;;3.47;2.22;;;;;;;;;;4915486;29;20033;-88
2022/05/13 13:03:18;;;;;;;5.50;2.20;;;;;;;;;;4916299;29;20060;-79
2022/05/13 13:05:57;;;;;;;3.20;2.25;;;;;;;;;;4914795;29;20037;-85
2022/05/13 13:08:40;;;;;;;4.75;2.30;;;;;;;;;;4915336;29;20037;-88
2022/05/13 13:11:06;;;;;;;;;;;;;;;;;;4916061;29;20115;-82
2022/05/13 13:14:01;;;;;;;8.18;2.90;;;;;;;;;;4915352;29;19947;-79
2022/05/13 13:16:45;;;;;;;5.50;3.08;;;;;;;;;;4895647;29;20041;-81
2022/05/13 13:19:18;;;;;;;2.83;2.30;;;;;;;;;;4917489;29;20047;-82
2022/05/13 13:21:45;;;;;;;7.72;2.70;;;;;;;;;;4916127;29;20406;-80
2022/05/13 13:24:16;;;;;;;4.97;2.63;;;;;;;;;;4915358;29;20035;-81
2022/05/13 13:26:46;;;;;;;5.75;2.38;;;;;;;;;;4915447;29;20043;-89
2022/05/13 13:29:12;;;;;;;4.30;2.35;;;;;;;;;;4914879;29;20029;-81
2022/05/13 13:31:47;;;;;;;5.45;2.60;;;;;;;;;;4915025;29;20088;-91
2022/05/13 13:34:24;;;;;;;5.05;2.70;;;;;;;;;;4915836;29;20028;-90
2022/05/13 13:36:51;;;;;;;3.65;2.67;;;;;;;;;;4915165;29;20029;-82
2022/05/13 13:39:17;;;;;;;4.18;2.50;;;;;;;;;;4914979;29;20188;-83
2022/05/13 13:41:46;;;;;;;6.07;2.67;;;;;;;;;;4915064;29;20434;-90
2022/05/13 13:44:14;;;;;;;5.07;2.95;;;;;;;;;;4915440;29;20037;-81
2022/05/13 13:46:43;;;;;;;5.63;3.47;;;;;;;;;;4914567;29;20117;-90
2022/05/13 13:49:10;;;;;;;5.43;3.47;;;;;;;;;;4914615;29;20088;-82
2022/05/13 13:51:44;;;;;;;6.03;3.05;;;;;;;;;;4899888;29;20033;-81
2022/05/13 13:54:16;;;;;;;5.78;3.83;;;;;;;;;;4914893;29;20032;-82
2022/05/13 13:56:50;;;;;;;6.80;3.53;;;;;;;;;;4914617;29;20087;-82
2022/05/13 13:59:35;;;;;;;5.18;3.08;;;;;;;;;;4916041;29;20055;-83
2022/05/13 14:02:02;;;;;;;4.78;3.45;;;;;;;;;;4933834;29;20036;-82
2022/05/13 14:04:29;;;;;;;4.68;3.63;;;;;;;;;;4930235;29;20032;-87
2022/05/13 14:06:56;;;;;;;6.32;3.88;;;;;;;;;;4917423;29;20031;-89
2022/05/13 14:09:27;;;;;;;5.95;3.95;;;;;;;;;;4917785;29;20036;-83
2022/05/13 14:11:54;;;;;;;4.82;3.58;;;;;;;;;;4917647;29;20032;-82
2022/05/13 14:14:21;;;;;;;5.25;3.70;;;;;;;;;;4917414;29;20040;-82
2022/05/13 14:16:53;;;;;;;6.97;3.25;;;;;;;;;;4918663;29;20147;-81
2022/05/13 14:19:21;;;;;;;5.78;3.20;;;;;;;;;;4918315;29;20099;-93
2022/05/13 14:21:49;;;;;;;4.50;3.00;;;;;;;;;;4917518;29;20036;-82
2022/05/13 14:24:15;;;;;;;5.13;2.53;;;;;;;;;;4917258;29;20032;-83
2022/05/13 14:26:54;;;;;;;6.68;3.22;;;;;;;;;;4914185;29;20025;-87
2022/05/13 14:29:21;;;;;;;7.60;2.92;;;;;;;;;;4914072;29;20037;-89
2022/05/13 14:31:47;;;;;;;5.50;2.90;;;;;;;;;;4914367;29;20120;-84
2022/05/13 14:34:15;;;;;;;4.03;3.00;;;;;;;;;;4914621;29;20036;-82
2022/05/13 14:36:46;;;;;;;5.43;2.75;;;;;;;;;;4914340;29;20040;-90
2022/05/13 14:42:04;;;;;;;7.22;3.30;;;;;;;;;;4900064;29;20039;-86
2022/05/13 14:44:36;;;;;;;5.30;3.03;;;;;;;;;;4913934;29;20040;-87
2022/05/13 14:58:33;;;;;;;4.10;2.83;;;;;;;;;;5002914;23;20066;-83
2022/05/13 15:01:18;;;;;;;6.00;2.83;;;;;;;;;;4933565;23;20067;-87
2022/05/13 15:04:22;;;;;;;3.90;2.95;;;;;;;;;;4915159;29;20048;-83
2022/05/13 18:25:13;;;;;;;6.85;2.92;;;;;;;;;;4867609;29;20132;-89
2022/05/13 18:36:56;;;;;;;5.50;3.38;;;;;;;;;;4912390;23;20463;-89
2022/05/13 18:51:43;;;;;;;4.97;3.20;;;;;;;;;;5085183;23;20057;-84
2022/05/13 21:31:01;;;;;;;4.40;3.25;;;;;;;;;;6227591;23;20071;-88
2022/05/13 21:45:25;;;;;;;6.10;3.53;;;;;;;;;;6256182;23;20456;-85
2022/05/13 21:48:00;;;;;;;6.13;3.60;;;;;;;;;;6230568;23;20008;-90
2022/05/13 21:50:51;;;;;;;6.40;3.72;;;;;;;;;;6232184;23;20004;-88
2022/05/13 21:58:58;;;;;;;4.75;3.45;;;;;;;;;;6207052;23;20295;-79
2022/05/13 22:01:25;;;;;;;4.88;3.72;;;;;;;;;;6223750;23;20455;-81
2022/05/13 22:03:52;;;;;;;5.47;3.72;;;;;;;;;;6250523;23;20058;-81
2022/05/13 22:15:43;;;;;;;5.18;3.97;;;;;;;;;;6128529;23;20049;-85
2022/05/13 22:18:28;;;;;;;6.43;3.88;;;;;;;;;;6180522;23;20059;-89
2022/05/13 22:26:51;;;;;;;6.93;4.05;;;;;;;;;;6239369;22;20063;-81
2022/05/13 22:29:34;;;;;;;8.10;4.00;;;;;;;;;;6158897;23;20010;-81
2022/05/13 22:32:43;;;;;;;9.30;4.10;;;;;;;;;;6176945;22;20027;-85
2022/05/13 22:35:17;;;;;;;6.20;4.00;;;;;;;;;;6192108;23;20009;-88
2022/05/13 22:38:14;;;;;;;6.45;4.10;;;;;;;;;;6226299;23;20020;-88
2022/05/13 22:41:03;;;;;;;4.63;4.10;;;;;;;;;;6223521;23;20311;-89
2022/05/13 22:43:48;;;;;;;5.80;3.88;;;;;;;;;;6224071;23;20004;-90